sensor_id;sensor_type;location;lat;lon;timestamp;pressure;altitude;pressure_sealevel;temperature;humidity
43818;BME280;29868;47.360;18.984;2023-03-13T09:12:25;100479.44;;;11.33;48.68
43818;BME280;29868;47.360;18.984;2023-03-13T09:14:51;100469.25;;;11.49;48.73
43818;BME280;29868;47.360;18.984;2023-03-13T09:17:17;100467.75;;;11.69;47.79
43818;BME280;29868;47.360;18.984;2023-03-13T09:19:42;100472.19;;;11.78;47.45
43818;BME280;29868;47.360;18.984;2023-03-13T09:22:07;100467.84;;;11.75;47.97
43818;BME280;29868;47.360;18.984;2023-03-13T09:24:33;100459.34;;;11.88;46.99
43818;BME280;29868;47.360;18.984;2023-03-13T09:26:59;100467.31;;;12.01;47.19
43818;BME280;29868;47.360;18.984;2023-03-13T09:29:25;100459.63;;;12.10;45.95
43818;BME280;29868;47.360;18.984;2023-03-13T09:31:50;100458.69;;;12.08;45.87
43818;BME280;29868;47.360;18.984;2023-03-13T09:34:16;100455.59;;;12.39;46.59
43818;BME280;29868;47.360;18.984;2023-03-13T09:36:41;100451.34;;;12.51;45.47
43818;BME280;29868;47.360;18.984;2023-03-13T09:39:07;100449.84;;;12.80;46.17
43818;BME280;29868;47.360;18.984;2023-03-13T09:41:39;100447.13;;;12.68;44.61
43818;BME280;29868;47.360;18.984;2023-03-13T09:44:11;100444.72;;;12.91;43.73
43818;BME280;29868;47.360;18.984;2023-03-13T09:49:35;100443.13;;;13.07;43.55
43818;BME280;29868;47.360;18.984;2023-03-13T09:55:09;100445.16;;;13.54;43.23
43818;BME280;29868;47.360;18.984;2023-03-13T10:00:15;100431.31;;;13.78;42.77
43818;BME280;29868;47.360;18.984;2023-03-13T10:02:46;100440.84;;;13.67;43.05
43818;BME280;29868;47.360;18.984;2023-03-13T10:05:21;100420.81;;;13.67;42.59
43818;BME280;29868;47.360;18.984;2023-03-13T10:07:47;100419.16;;;13.84;43.43
43818;BME280;29868;47.360;18.984;2023-03-13T10:10:18;100413.06;;;13.81;42.55
43818;BME280;29868;47.360;18.984;2023-03-13T10:13:02;100412.22;;;13.96;42.65
43818;BME280;29868;47.360;18.984;2023-03-13T10:15:39;100401.84;;;14.09;41.87
43818;BME280;29868;47.360;18.984;2023-03-13T10:18:19;100399.13;;;13.82;40.90
43818;BME280;29868;47.360;18.984;2023-03-13T10:20:48;100402.66;;;13.99;41.37
43818;BME280;29868;47.360;18.984;2023-03-13T10:23:40;100407.03;;;14.02;40.70
43818;BME280;29868;47.360;18.984;2023-03-13T10:26:14;100402.66;;;13.96;40.20
43818;BME280;29868;47.360;18.984;2023-03-13T10:28:41;100407.00;;;13.91;41.32
43818;BME280;29868;47.360;18.984;2023-03-13T10:31:31;100407.03;;;14.08;41.66
43818;BME280;29868;47.360;18.984;2023-03-13T10:34:07;100403.59;;;14.33;43.48
43818;BME280;29868;47.360;18.984;2023-03-13T10:36:42;100401.84;;;14.29;42.19
43818;BME280;29868;47.360;18.984;2023-03-13T10:39:14;100395.72;;;14.20;41.61
43818;BME280;29868;47.360;18.984;2023-03-13T10:41:40;100398.38;;;14.33;42.10
43818;BME280;29868;47.360;18.984;2023-03-13T10:44:14;100387.88;;;14.24;42.03
43818;BME280;29868;47.360;18.984;2023-03-13T10:46:42;100390.53;;;14.44;41.61
43818;BME280;29868;47.360;18.984;2023-03-13T10:49:14;100375.75;;;14.60;42.75
43818;BME280;29868;47.360;18.984;2023-03-13T10:51:46;100378.38;;;14.52;41.81
43818;BME280;29868;47.360;18.984;2023-03-13T10:54:24;100386.22;;;14.52;42.16
43818;BME280;29868;47.360;18.984;2023-03-13T10:56:51;100372.22;;;14.43;42.40
43818;BME280;29868;47.360;18.984;2023-03-13T10:59:25;100374.00;;;14.57;42.55
43818;BME280;29868;47.360;18.984;2023-03-13T11:01:52;100360.91;;;14.62;42.84
43818;BME280;29868;47.360;18.984;2023-03-13T11:07:00;100363.53;;;14.45;42.36
43818;BME280;29868;47.360;18.984;2023-03-13T11:09:26;100360.91;;;14.62;43.19
43818;BME280;29868;47.360;18.984;2023-03-13T11:11:54;100358.31;;;14.73;43.09
43818;BME280;29868;47.360;18.984;2023-03-13T11:14:24;100349.63;;;14.60;42.60
43818;BME280;29868;47.360;18.984;2023-03-13T11:16:51;100356.56;;;14.73;42.56
43818;BME280;29868;47.360;18.984;2023-03-13T11:22:04;100334.78;;;14.68;43.20
43818;BME280;29868;47.360;18.984;2023-03-13T11:33:03;100316.50;;;14.53;43.26
43818;BME280;29868;47.360;18.984;2023-03-13T11:35:49;100325.19;;;14.72;43.02
43818;BME280;29868;47.360;18.984;2023-03-13T11:41:08;100316.41;;;15.05;41.90
43818;BME280;29868;47.360;18.984;2023-03-13T11:49:24;100298.97;;;15.02;41.98
43818;BME280;29868;47.360;18.984;2023-03-13T11:57:50;100282.94;;;15.71;41.64
43818;BME280;29868;47.360;18.984;2023-03-13T12:00:32;100276.63;;;15.98;41.22
43818;BME280;29868;47.360;18.984;2023-03-13T12:03:13;100264.31;;;16.10;40.79
43818;BME280;29868;47.360;18.984;2023-03-13T12:05:47;100252.81;;;16.24;40.50
43818;BME280;29868;47.360;18.984;2023-03-13T12:08:22;100251.50;;;16.68;41.13
43818;BME280;29868;47.360;18.984;2023-03-13T12:13:28;100248.59;;;16.97;39.86
43818;BME280;29868;47.360;18.984;2023-03-13T12:15:59;100241.06;;;16.67;39.67
43818;BME280;29868;47.360;18.984;2023-03-13T12:18:35;100241.78;;;16.83;39.18
43818;BME280;29868;47.360;18.984;2023-03-13T12:30:24;100222.72;;;16.64;39.57
43818;BME280;29868;47.360;18.984;2023-03-13T12:33:02;100213.59;;;16.15;39.73
43818;BME280;29868;47.360;18.984;2023-03-13T12:35:35;100216.22;;;16.14;40.42
43818;BME280;29868;47.360;18.984;2023-03-13T12:38:17;100201.53;;;15.97;40.90
43818;BME280;29868;47.360;18.984;2023-03-13T12:43:57;100191.19;;;15.82;41.38
43818;BME280;29868;47.360;18.984;2023-03-13T12:46:36;100193.47;;;16.20;41.71
43818;BME280;29868;47.360;18.984;2023-03-13T12:52:06;100182.38;;;16.78;40.23
43818;BME280;29868;47.360;18.984;2023-03-13T12:59:59;100162.00;;;16.97;39.44
43818;BME280;29868;47.360;18.984;2023-03-13T13:02:30;100153.94;;;17.08;39.56
43818;BME280;29868;47.360;18.984;2023-03-13T13:04:59;100147.94;;;17.01;39.84
43818;BME280;29868;47.360;18.984;2023-03-13T13:07:31;100144.50;;;16.98;40.54
43818;BME280;29868;47.360;18.984;2023-03-13T13:10:15;100131.53;;;16.87;40.76
43818;BME280;29868;47.360;18.984;2023-03-13T13:12:46;100129.47;;;17.08;40.63
43818;BME280;29868;47.360;18.984;2023-03-13T13:15:31;100127.44;;;17.26;40.36
43818;BME280;29868;47.360;18.984;2023-03-13T13:25:45;100124.44;;;18.02;39.30
43818;BME280;29868;47.360;18.984;2023-03-13T13:30:46;100134.03;;;18.05;39.26
43818;BME280;29868;47.360;18.984;2023-03-13T13:36:21;100138.03;;;17.78;38.94
43818;BME280;29868;47.360;18.984;2023-03-13T13:38:33;100115.78;;;17.44;40.27
43818;BME280;29868;47.360;18.984;2023-03-13T13:41:06;100133.00;;;17.62;39.88
43818;BME280;29868;47.360;18.984;2023-03-13T13:43:48;100122.09;;;17.33;39.96
43818;BME280;29868;47.360;18.984;2023-03-13T13:46:26;100115.13;;;17.30;39.43
43818;BME280;29868;47.360;18.984;2023-03-13T13:51:37;100110.78;;;17.29;39.90
43818;BME280;29868;47.360;18.984;2023-03-13T13:57:13;100101.59;;;17.56;39.35
43818;BME280;29868;47.360;18.984;2023-03-13T13:59:44;100090.69;;;17.79;39.91
43818;BME280;29868;47.360;18.984;2023-03-13T14:02:53;100087.63;;;18.04;39.75
43818;BME280;29868;47.360;18.984;2023-03-13T14:05:22;100081.16;;;17.73;39.62
43818;BME280;29868;47.360;18.984;2023-03-13T14:10:37;100075.38;;;17.53;39.92
43818;BME280;29868;47.360;18.984;2023-03-13T14:13:15;100083.66;;;17.29;40.27
43818;BME280;29868;47.360;18.984;2023-03-13T14:15:46;100085.47;;;17.23;41.09
43818;BME280;29868;47.360;18.984;2023-03-13T14:23:38;100088.09;;;17.25;41.82
43818;BME280;29868;47.360;18.984;2023-03-13T14:28:53;100081.94;;;17.26;41.39
43818;BME280;29868;47.360;18.984;2023-03-13T14:31:29;100075.66;;;17.36;41.54
43818;BME280;29868;47.360;18.984;2023-03-13T14:33:58;100082.63;;;17.37;41.88
43818;BME280;29868;47.360;18.984;2023-03-13T14:36:25;100073.47;;;17.10;41.78
43818;BME280;29868;47.360;18.984;2023-03-13T14:38:55;100077.09;;;17.00;41.89
43818;BME280;29868;47.360;18.984;2023-03-13T14:41:35;100080.63;;;16.99;42.49
43818;BME280;29868;47.360;18.984;2023-03-13T14:44:12;100066.66;;;16.97;42.84
43818;BME280;29868;47.360;18.984;2023-03-13T14:46:40;100068.41;;;16.98;43.26
43818;BME280;29868;47.360;18.984;2023-03-13T14:49:13;100059.41;;;17.14;43.39
43818;BME280;29868;47.360;18.984;2023-03-13T14:51:40;100072.34;;;17.25;42.79
43818;BME280;29868;47.360;18.984;2023-03-13T14:54:25;100064.75;;;17.07;43.16
43818;BME280;29868;47.360;18.984;2023-03-13T14:57:14;100065.75;;;16.99;43.71
43818;BME280;29868;47.360;18.984;2023-03-13T14:59:41;100056.28;;;16.89;43.21
43818;BME280;29868;47.360;18.984;2023-03-13T15:02:23;100056.66;;;16.63;43.61
43818;BME280;29868;47.360;18.984;2023-03-13T15:05:31;100054.00;;;16.65;43.69
43818;BME280;29868;47.360;18.984;2023-03-13T15:07:57;100054.81;;;16.68;44.18
43818;BME280;29868;47.360;18.984;2023-03-13T15:10:25;100050.41;;;16.70;44.18
43818;BME280;29868;47.360;18.984;2023-03-13T15:12:55;100052.25;;;16.62;45.23
43818;BME280;29868;47.360;18.984;2023-03-13T15:15:20;100055.31;;;16.32;45.06
43818;BME280;29868;47.360;18.984;2023-03-13T15:17:46;100050.16;;;16.25;45.51
43818;BME280;29868;47.360;18.984;2023-03-13T15:20:13;100040.97;;;15.89;46.28
43818;BME280;29868;47.360;18.984;2023-03-13T15:22:40;100033.31;;;15.72;46.29
43818;BME280;29868;47.360;18.984;2023-03-13T15:25:19;100028.22;;;15.54;46.43
43818;BME280;29868;47.360;18.984;2023-03-13T15:27:46;100021.22;;;15.54;46.87
43818;BME280;29868;47.360;18.984;2023-03-13T15:30:20;100009.19;;;15.38;47.18
43818;BME280;29868;47.360;18.984;2023-03-13T15:32:48;100016.22;;;15.30;47.68
43818;BME280;29868;47.360;18.984;2023-03-13T15:37:51;100016.41;;;15.10;48.36
43818;BME280;29868;47.360;18.984;2023-03-13T15:40:17;100007.72;;;15.05;48.65
43818;BME280;29868;47.360;18.984;2023-03-13T15:42:44;100000.78;;;15.01;48.47
43818;BME280;29868;47.360;18.984;2023-03-13T15:45:09;99993.09;;;14.82;49.31
43818;BME280;29868;47.360;18.984;2023-03-13T15:47:35;99997.50;;;14.74;49.48
43818;BME280;29868;47.360;18.984;2023-03-13T15:50:00;100001.03;;;14.67;50.33
43818;BME280;29868;47.360;18.984;2023-03-13T15:52:27;99993.22;;;14.61;50.66
43818;BME280;29868;47.360;18.984;2023-03-13T15:54:52;99990.69;;;14.55;50.70
43818;BME280;29868;47.360;18.984;2023-03-13T15:57:21;99990.66;;;14.49;51.11
43818;BME280;29868;47.360;18.984;2023-03-13T15:59:49;99998.53;;;14.47;51.01
43818;BME280;29868;47.360;18.984;2023-03-13T16:02:20;99990.69;;;14.46;51.95
43818;BME280;29868;47.360;18.984;2023-03-13T16:04:46;99984.66;;;14.31;52.31
43818;BME280;29868;47.360;18.984;2023-03-13T16:07:14;99989.94;;;14.25;52.69
43818;BME280;29868;47.360;18.984;2023-03-13T16:09:41;99983.03;;;14.14;52.78
43818;BME280;29868;47.360;18.984;2023-03-13T16:12:07;99975.19;;;14.12;53.35
43818;BME280;29868;47.360;18.984;2023-03-13T16:14:33;99986.53;;;14.06;53.73
43818;BME280;29868;47.360;18.984;2023-03-13T16:17:00;99975.25;;;13.97;54.13
43818;BME280;29868;47.360;18.984;2023-03-13T16:19:26;99977.91;;;13.91;53.81
43818;BME280;29868;47.360;18.984;2023-03-13T16:21:52;99976.19;;;13.82;54.67
43818;BME280;29868;47.360;18.984;2023-03-13T16:24:17;99973.63;;;13.73;55.69
43818;BME280;29868;47.360;18.984;2023-03-13T16:26:44;99972.78;;;13.63;55.53
43818;BME280;29868;47.360;18.984;2023-03-13T16:29:14;99966.69;;;13.61;55.59
43818;BME280;29868;47.360;18.984;2023-03-13T16:31:40;99973.66;;;13.57;55.56
43818;BME280;29868;47.360;18.984;2023-03-13T16:34:05;99963.25;;;13.51;56.27
43818;BME280;29868;47.360;18.984;2023-03-13T16:36:32;99958.06;;;13.42;56.14
43818;BME280;29868;47.360;18.984;2023-03-13T16:38:59;99963.25;;;13.41;56.88
43818;BME280;29868;47.360;18.984;2023-03-13T16:41:26;99964.13;;;13.36;57.35
43818;BME280;29868;47.360;18.984;2023-03-13T16:43:53;99958.94;;;13.29;58.34
43818;BME280;29868;47.360;18.984;2023-03-13T16:46:24;99961.53;;;13.18;58.63
43818;BME280;29868;47.360;18.984;2023-03-13T16:48:52;99966.78;;;13.15;59.01
43818;BME280;29868;47.360;18.984;2023-03-13T16:51:22;99970.25;;;13.05;60.02
43818;BME280;29868;47.360;18.984;2023-03-13T16:53:50;99971.13;;;12.98;60.41
43818;BME280;29868;47.360;18.984;2023-03-13T16:56:24;99969.38;;;12.95;60.02
43818;BME280;29868;47.360;18.984;2023-03-13T16:58:50;99964.16;;;12.95;60.23
43818;BME280;29868;47.360;18.984;2023-03-13T17:01:16;99959.81;;;12.89;60.58
43818;BME280;29868;47.360;18.984;2023-03-13T17:03:42;99965.91;;;12.85;60.81
43818;BME280;29868;47.360;18.984;2023-03-13T17:06:24;99975.44;;;12.80;61.16
43818;BME280;29868;47.360;18.984;2023-03-13T17:08:50;99973.72;;;12.79;61.15
43818;BME280;29868;47.360;18.984;2023-03-13T17:11:18;99978.91;;;12.76;61.74
43818;BME280;29868;47.360;18.984;2023-03-13T17:13:45;99980.66;;;12.80;61.34
43818;BME280;29868;47.360;18.984;2023-03-13T17:16:20;99981.56;;;12.73;61.84
43818;BME280;29868;47.360;18.984;2023-03-13T17:18:47;99985.00;;;12.68;62.42
43818;BME280;29868;47.360;18.984;2023-03-13T17:21:26;99973.72;;;12.64;62.23
43818;BME280;29868;47.360;18.984;2023-03-13T17:23:53;99978.91;;;12.59;62.76
43818;BME280;29868;47.360;18.984;2023-03-13T17:26:24;99975.44;;;12.56;63.27
43818;BME280;29868;47.360;18.984;2023-03-13T17:28:52;99965.03;;;12.47;63.78
43818;BME280;29868;47.360;18.984;2023-03-13T17:31:19;99971.94;;;12.38;64.40
43818;BME280;29868;47.360;18.984;2023-03-13T17:33:46;99972.81;;;12.37;64.90
43818;BME280;29868;47.360;18.984;2023-03-13T17:36:16;99968.44;;;12.30;65.24
43818;BME280;29868;47.360;18.984;2023-03-13T17:38:43;99967.56;;;12.22;65.91
43818;BME280;29868;47.360;18.984;2023-03-13T17:41:13;99973.63;;;12.16;66.89
43818;BME280;29868;47.360;18.984;2023-03-13T17:43:39;99973.59;;;12.10;67.49
43818;BME280;29868;47.360;18.984;2023-03-13T17:46:15;99978.75;;;12.00;67.77
43818;BME280;29868;47.360;18.984;2023-03-13T17:48:40;99978.75;;;11.97;68.50
43818;BME280;29868;47.360;18.984;2023-03-13T17:51:13;99978.66;;;11.80;69.27
43818;BME280;29868;47.360;18.984;2023-03-13T17:53:38;99975.16;;;11.76;69.50
43818;BME280;29868;47.360;18.984;2023-03-13T17:56:11;99982.03;;;11.62;70.35
43818;BME280;29868;47.360;18.984;2023-03-13T17:58:36;99980.19;;;11.42;71.30
43818;BME280;29868;47.360;18.984;2023-03-13T18:01:02;99980.22;;;11.44;71.22
43818;BME280;29868;47.360;18.984;2023-03-13T18:03:27;99968.88;;;11.34;71.53
43818;BME280;29868;47.360;18.984;2023-03-13T18:05:53;99964.53;;;11.33;71.71
43818;BME280;29868;47.360;18.984;2023-03-13T18:08:19;99957.59;;;11.29;71.31
43818;BME280;29868;47.360;18.984;2023-03-13T18:10:45;99960.97;;;11.19;72.36
43818;BME280;29868;47.360;18.984;2023-03-13T18:13:11;99968.81;;;11.22;71.87
43818;BME280;29868;47.360;18.984;2023-03-13T18:15:37;99957.50;;;11.20;72.01
43818;BME280;29868;47.360;18.984;2023-03-13T18:18:02;99950.50;;;11.07;72.92
43818;BME280;29868;47.360;18.984;2023-03-13T18:20:30;99949.56;;;10.95;73.75
43818;BME280;29868;47.360;18.984;2023-03-13T18:22:56;99953.78;;;10.80;75.02
43818;BME280;29868;47.360;18.984;2023-03-13T18:25:27;99953.72;;;10.74;75.49
43818;BME280;29868;47.360;18.984;2023-03-13T18:27:53;99951.03;;;10.66;76.24
43818;BME280;29868;47.360;18.984;2023-03-13T18:30:21;99960.47;;;10.55;77.07
43818;BME280;29868;47.360;18.984;2023-03-13T18:32:47;99953.41;;;10.40;77.92
43818;BME280;29868;47.360;18.984;2023-03-13T18:35:13;99950.69;;;10.29;78.79
43818;BME280;29868;47.360;18.984;2023-03-13T18:37:40;99950.72;;;10.31;78.76
43818;BME280;29868;47.360;18.984;2023-03-13T18:40:22;99943.75;;;10.27;78.58
43818;BME280;29868;47.360;18.984;2023-03-13T18:42:48;99935.81;;;10.16;79.15
43818;BME280;29868;47.360;18.984;2023-03-13T18:45:16;99939.25;;;10.15;78.98
43818;BME280;29868;47.360;18.984;2023-03-13T18:47:43;99934.03;;;10.10;79.72
43818;BME280;29868;47.360;18.984;2023-03-13T18:50:17;99927.84;;;9.99;80.24
43818;BME280;29868;47.360;18.984;2023-03-13T18:52:43;99934.03;;;10.09;79.49
43818;BME280;29868;47.360;18.984;2023-03-13T18:55:08;99933.06;;;10.04;80.06
43818;BME280;29868;47.360;18.984;2023-03-13T18:57:34;99927.97;;;10.10;80.07
43818;BME280;29868;47.360;18.984;2023-03-13T18:59:59;99927.09;;;10.08;80.24
43818;BME280;29868;47.360;18.984;2023-03-13T19:02:25;99918.31;;;9.99;80.55
43818;BME280;29868;47.360;18.984;2023-03-13T19:04:50;99913.28;;;10.12;79.33
43818;BME280;29868;47.360;18.984;2023-03-13T19:07:23;99903.75;;;10.09;78.41
43818;BME280;29868;47.360;18.984;2023-03-13T19:09:50;99911.53;;;10.08;78.01
43818;BME280;29868;47.360;18.984;2023-03-13T19:12:15;99901.16;;;10.11;76.79
43818;BME280;29868;47.360;18.984;2023-03-13T19:14:41;99902.91;;;10.12;75.90
43818;BME280;29868;47.360;18.984;2023-03-13T19:17:15;99896.09;;;10.23;73.85
43818;BME280;29868;47.360;18.984;2023-03-13T19:19:43;99888.38;;;10.29;72.66
43818;BME280;29868;47.360;18.984;2023-03-13T19:22:12;99889.38;;;10.43;71.29
43818;BME280;29868;47.360;18.984;2023-03-13T19:24:37;99890.19;;;10.35;71.50
43818;BME280;29868;47.360;18.984;2023-03-13T19:27:03;99885.88;;;10.41;71.04
43818;BME280;29868;47.360;18.984;2023-03-13T19:29:29;99873.88;;;10.50;69.47
43818;BME280;29868;47.360;18.984;2023-03-13T19:31:58;99872.09;;;10.45;69.29
43818;BME280;29868;47.360;18.984;2023-03-13T19:34:29;99872.06;;;10.44;69.56
43818;BME280;29868;47.360;18.984;2023-03-13T19:36:54;99874.59;;;10.36;69.53
43818;BME280;29868;47.360;18.984;2023-03-13T19:39:21;99870.28;;;10.35;69.35
43818;BME280;29868;47.360;18.984;2023-03-13T19:41:48;99861.63;;;10.38;68.99
43818;BME280;29868;47.360;18.984;2023-03-13T19:44:15;99862.53;;;10.38;68.56
43818;BME280;29868;47.360;18.984;2023-03-13T19:46:41;99865.88;;;10.30;69.73
43818;BME280;29868;47.360;18.984;2023-03-13T19:49:12;99859.69;;;10.17;70.18
43818;BME280;29868;47.360;18.984;2023-03-13T19:51:38;99864.00;;;10.15;70.39
43818;BME280;29868;47.360;18.984;2023-03-13T19:54:04;99851.88;;;10.12;70.47
43818;BME280;29868;47.360;18.984;2023-03-13T19:56:30;99856.13;;;10.06;70.55
43818;BME280;29868;47.360;18.984;2023-03-13T19:59:09;99853.44;;;9.95;70.99
43818;BME280;29868;47.360;18.984;2023-03-13T20:01:37;99848.19;;;9.89;71.49
43818;BME280;29868;47.360;18.984;2023-03-13T20:04:02;99858.50;;;9.83;72.01
43818;BME280;29868;47.360;18.984;2023-03-13T20:06:29;99862.78;;;9.79;72.01
43818;BME280;29868;47.360;18.984;2023-03-13T20:08:57;99861.88;;;9.75;72.30
43818;BME280;29868;47.360;18.984;2023-03-13T20:11:23;99862.59;;;9.62;72.43
43818;BME280;29868;47.360;18.984;2023-03-13T20:13:50;99858.16;;;9.54;72.84
43818;BME280;29868;47.360;18.984;2023-03-13T20:16:15;99859.78;;;9.44;73.36
43818;BME280;29868;47.360;18.984;2023-03-13T20:18:41;99854.47;;;9.35;73.35
43818;BME280;29868;47.360;18.984;2023-03-13T20:21:13;99855.28;;;9.29;72.97
43818;BME280;29868;47.360;18.984;2023-03-13T20:23:41;99858.75;;;9.28;72.94
43818;BME280;29868;47.360;18.984;2023-03-13T20:26:08;99856.94;;;9.24;71.94
43818;BME280;29868;47.360;18.984;2023-03-13T20:28:35;99847.38;;;9.18;71.64
43818;BME280;29868;47.360;18.984;2023-03-13T20:31:01;99849.13;;;9.21;70.64
43818;BME280;29868;47.360;18.984;2023-03-13T20:33:27;99836.03;;;9.12;70.39
43818;BME280;29868;47.360;18.984;2023-03-13T20:35:56;99838.53;;;9.04;69.73
43818;BME280;29868;47.360;18.984;2023-03-13T20:38:21;99827.16;;;8.91;70.61
43818;BME280;29868;47.360;18.984;2023-03-13T20:40:51;99816.84;;;8.94;69.82
43818;BME280;29868;47.360;18.984;2023-03-13T20:43:17;99818.44;;;8.86;69.48
43818;BME280;29868;47.360;18.984;2023-03-13T20:45:43;99808.84;;;8.79;70.18
43818;BME280;29868;47.360;18.984;2023-03-13T20:48:09;99804.53;;;8.80;68.92
43818;BME280;29868;47.360;18.984;2023-03-13T20:50:35;99789.66;;;8.66;69.33
43818;BME280;29868;47.360;18.984;2023-03-13T20:53:00;99792.31;;;8.69;68.33
43818;BME280;29868;47.360;18.984;2023-03-13T20:55:26;99784.44;;;8.63;68.28
43818;BME280;29868;47.360;18.984;2023-03-13T20:57:51;99776.66;;;8.62;67.49
43818;BME280;29868;47.360;18.984;2023-03-13T21:00:17;99774.72;;;8.47;68.09
43818;BME280;29868;47.360;18.984;2023-03-13T21:02:43;99786.75;;;8.43;68.28
43818;BME280;29868;47.360;18.984;2023-03-13T21:05:08;99767.63;;;8.37;68.04
43818;BME280;29868;47.360;18.984;2023-03-13T21:07:34;99759.00;;;8.36;67.88
43818;BME280;29868;47.360;18.984;2023-03-13T21:09:59;99761.59;;;8.36;67.39
43818;BME280;29868;47.360;18.984;2023-03-13T21:12:25;99753.78;;;8.33;66.95
43818;BME280;29868;47.360;18.984;2023-03-13T21:14:50;99755.44;;;8.28;67.00
43818;BME280;29868;47.360;18.984;2023-03-13T21:17:19;99744.16;;;8.23;67.27
43818;BME280;29868;47.360;18.984;2023-03-13T21:19:44;99742.28;;;8.14;67.71
43818;BME280;29868;47.360;18.984;2023-03-13T21:22:10;99748.06;;;7.98;69.09
43818;BME280;29868;47.360;18.984;2023-03-13T21:24:35;99740.25;;;7.95;68.79
43818;BME280;29868;47.360;18.984;2023-03-13T21:27:01;99723.91;;;7.97;68.48
43818;BME280;29868;47.360;18.984;2023-03-13T21:29:26;99722.94;;;7.91;68.68
43818;BME280;29868;47.360;18.984;2023-03-13T21:31:51;99714.25;;;7.86;69.12
43818;BME280;29868;47.360;18.984;2023-03-13T21:34:17;99707.38;;;7.86;68.38
43818;BME280;29868;47.360;18.984;2023-03-13T21:36:42;99709.03;;;7.81;68.88
43818;BME280;29868;47.360;18.984;2023-03-13T21:39:08;99704.66;;;7.80;68.79
43818;BME280;29868;47.360;18.984;2023-03-13T21:41:33;99701.16;;;7.75;68.93
43818;BME280;29868;47.360;18.984;2023-03-13T21:44:02;99696.78;;;7.71;69.25
43818;BME280;29868;47.360;18.984;2023-03-13T21:46:27;99694.13;;;7.66;69.99
43818;BME280;29868;47.360;18.984;2023-03-13T21:48:58;99687.31;;;7.71;69.72
43818;BME280;29868;47.360;18.984;2023-03-13T21:51:24;99689.75;;;7.62;70.10
43818;BME280;29868;47.360;18.984;2023-03-13T21:53:50;99691.34;;;7.54;70.75
43818;BME280;29868;47.360;18.984;2023-03-13T21:56:15;99693.94;;;7.57;70.41
43818;BME280;29868;47.360;18.984;2023-03-13T21:58:42;99688.72;;;7.52;70.94
43818;BME280;29868;47.360;18.984;2023-03-13T22:01:09;99683.47;;;7.46;71.27
43818;BME280;29868;47.360;18.984;2023-03-13T22:03:35;99679.97;;;7.46;71.23
43818;BME280;29868;47.360;18.984;2023-03-13T22:06:01;99685.00;;;7.38;71.94
43818;BME280;29868;47.360;18.984;2023-03-13T22:08:26;99690.97;;;7.32;72.48
43818;BME280;29868;47.360;18.984;2023-03-13T22:10:51;99683.13;;;7.28;72.88
43818;BME280;29868;47.360;18.984;2023-03-13T22:13:19;99673.59;;;7.24;72.94
43818;BME280;29868;47.360;18.984;2023-03-13T22:15:45;99674.38;;;7.20;73.57
43818;BME280;29868;47.360;18.984;2023-03-13T22:18:14;99664.25;;;7.32;73.11
43818;BME280;29868;47.360;18.984;2023-03-13T22:20:43;99657.44;;;7.37;72.77
43818;BME280;29868;47.360;18.984;2023-03-13T22:23:10;99650.47;;;7.33;73.47
43818;BME280;29868;47.360;18.984;2023-03-13T22:25:40;99650.41;;;7.28;74.01
43818;BME280;29868;47.360;18.984;2023-03-13T22:28:06;99649.56;;;7.29;74.23
43818;BME280;29868;47.360;18.984;2023-03-13T22:30:32;99646.06;;;7.26;74.15
43818;BME280;29868;47.360;18.984;2023-03-13T22:32:57;99647.84;;;7.28;74.32
43818;BME280;29868;47.360;18.984;2023-03-13T22:35:23;99648.63;;;7.26;74.58
43818;BME280;29868;47.360;18.984;2023-03-13T22:37:48;99638.34;;;7.29;74.61
43818;BME280;29868;47.360;18.984;2023-03-13T22:40:14;99633.06;;;7.23;75.46
43818;BME280;29868;47.360;18.984;2023-03-13T22:42:39;99627.91;;;7.23;75.51
43818;BME280;29868;47.360;18.984;2023-03-13T22:45:05;99619.38;;;7.27;75.63
43818;BME280;29868;47.360;18.984;2023-03-13T22:47:31;99613.19;;;7.17;76.46
43818;BME280;29868;47.360;18.984;2023-03-13T22:49:56;99614.00;;;7.15;76.90
43818;BME280;29868;47.360;18.984;2023-03-13T22:52:22;99619.22;;;7.18;76.89
43818;BME280;29868;47.360;18.984;2023-03-13T22:54:53;99618.28;;;7.13;77.55
43818;BME280;29868;47.360;18.984;2023-03-13T22:57:18;99619.81;;;7.01;78.75
43818;BME280;29868;47.360;18.984;2023-03-13T22:59:44;99626.63;;;6.99;79.30
43818;BME280;29868;47.360;18.984;2023-03-13T23:02:09;99606.84;;;7.00;79.17
43818;BME280;29868;47.360;18.984;2023-03-13T23:04:35;99612.84;;;6.97;79.88
43818;BME280;29868;47.360;18.984;2023-03-13T23:07:00;99611.78;;;6.86;80.97
